sensor_id;sensor_type;location;lat;lon;timestamp;pressure;altitude;pressure_sealevel;temperature;humidity
6413;BME280;3239;48.714;9.472;2023-07-20T00:01:15;97987.09;;;24.10;99.12
6413;BME280;3239;48.714;9.472;2023-07-20T00:03:41;97988.34;;;24.07;99.24
6413;BME280;3239;48.714;9.472;2023-07-20T00:06:07;97989.50;;;24.02;98.80
6413;BME280;3239;48.714;9.472;2023-07-20T00:08:33;97986.69;;;24.02;98.67
6413;BME280;3239;48.714;9.472;2023-07-20T00:10:59;97988.66;;;23.99;99.04
6413;BME280;3239;48.714;9.472;2023-07-20T00:13:25;97980.88;;;23.98;99.50
6413;BME280;3239;48.714;9.472;2023-07-20T00:15:51;97985.63;;;23.95;99.54
6413;BME280;3239;48.714;9.472;2023-07-20T00:18:17;97982.72;;;23.93;100.00
6413;BME280;3239;48.714;9.472;2023-07-20T00:20:43;97989.78;;;23.94;100.00
6413;BME280;3239;48.714;9.472;2023-07-20T00:23:09;97988.84;;;23.90;100.00
6413;BME280;3239;48.714;9.472;2023-07-20T00:25:35;97987.38;;;23.89;100.00
6413;BME280;3239;48.714;9.472;2023-07-20T00:28:01;97985.16;;;23.87;100.00
6413;BME280;3239;48.714;9.472;2023-07-20T00:30:27;97982.88;;;23.84;100.00
6413;BME280;3239;48.714;9.472;2023-07-20T00:32:53;97986.59;;;23.75;100.00
6413;BME280;3239;48.714;9.472;2023-07-20T00:35:18;97987.25;;;23.73;100.00
6413;BME280;3239;48.714;9.472;2023-07-20T00:37:44;97986.41;;;23.71;100.00
6413;BME280;3239;48.714;9.472;2023-07-20T00:40:10;97984.59;;;23.64;100.00
6413;BME280;3239;48.714;9.472;2023-07-20T00:42:36;97990.50;;;23.56;98.83
6413;BME280;3239;48.714;9.472;2023-07-20T00:45:02;97991.41;;;23.47;94.47
6413;BME280;3239;48.714;9.472;2023-07-20T00:47:28;97986.44;;;23.46;92.72
6413;BME280;3239;48.714;9.472;2023-07-20T00:49:54;97988.50;;;23.45;92.57
6413;BME280;3239;48.714;9.472;2023-07-20T00:52:23;97982.69;;;23.41;92.36
6413;BME280;3239;48.714;9.472;2023-07-20T00:54:51;97993.75;;;23.39;90.50
6413;BME280;3239;48.714;9.472;2023-07-20T00:57:18;97994.78;;;23.32;90.22
6413;BME280;3239;48.714;9.472;2023-07-20T00:59:44;97998.78;;;23.29;90.73
6413;BME280;3239;48.714;9.472;2023-07-20T01:02:10;98000.88;;;23.29;90.22
6413;BME280;3239;48.714;9.472;2023-07-20T01:04:36;97991.78;;;23.17;88.63
6413;BME280;3239;48.714;9.472;2023-07-20T01:07:36;97998.47;;;23.23;86.08
6413;BME280;3239;48.714;9.472;2023-07-20T01:10:15;97998.97;;;23.20;86.10
6413;BME280;3239;48.714;9.472;2023-07-20T01:12:47;97998.72;;;23.16;85.54
6413;BME280;3239;48.714;9.472;2023-07-20T01:15:13;97995.06;;;23.13;83.67
6413;BME280;3239;48.714;9.472;2023-07-20T01:17:39;97993.38;;;23.08;84.89
6413;BME280;3239;48.714;9.472;2023-07-20T01:20:08;98001.66;;;23.06;84.10
6413;BME280;3239;48.714;9.472;2023-07-20T01:28:55;97996.97;;;22.97;82.31
6413;BME280;3239;48.714;9.472;2023-07-20T01:31:27;97999.03;;;22.97;80.94
6413;BME280;3239;48.714;9.472;2023-07-20T01:33:58;97996.75;;;22.93;80.99
6413;BME280;3239;48.714;9.472;2023-07-20T01:36:30;98008.75;;;22.96;81.71
6413;BME280;3239;48.714;9.472;2023-07-20T01:38:58;98000.88;;;22.92;82.32
6413;BME280;3239;48.714;9.472;2023-07-20T01:41:24;97999.53;;;22.93;81.51
6413;BME280;3239;48.714;9.472;2023-07-20T01:43:50;98001.59;;;22.93;81.21
6413;BME280;3239;48.714;9.472;2023-07-20T01:46:16;98001.72;;;22.95;82.36
6413;BME280;3239;48.714;9.472;2023-07-20T01:48:42;98001.72;;;22.95;82.51
6413;BME280;3239;48.714;9.472;2023-07-20T01:51:08;98001.59;;;22.93;83.00
6413;BME280;3239;48.714;9.472;2023-07-20T01:53:34;98000.75;;;22.90;84.93
6413;BME280;3239;48.714;9.472;2023-07-20T01:55:59;98006.84;;;22.87;84.80
6413;BME280;3239;48.714;9.472;2023-07-20T01:58:25;98001.13;;;22.85;85.59
6413;BME280;3239;48.714;9.472;2023-07-20T02:00:51;97997.50;;;22.82;85.90
6413;BME280;3239;48.714;9.472;2023-07-20T02:03:17;98005.03;;;22.80;86.61
6413;BME280;3239;48.714;9.472;2023-07-20T02:05:43;97990.72;;;22.74;87.95
6413;BME280;3239;48.714;9.472;2023-07-20T02:08:09;98012.00;;;22.67;88.88
6413;BME280;3239;48.714;9.472;2023-07-20T02:10:35;98001.31;;;22.64;89.85
6413;BME280;3239;48.714;9.472;2023-07-20T02:13:01;98006.03;;;22.61;90.49
6413;BME280;3239;48.714;9.472;2023-07-20T02:15:27;97998.31;;;22.60;91.43
6413;BME280;3239;48.714;9.472;2023-07-20T02:17:54;97997.47;;;22.57;90.51
6413;BME280;3239;48.714;9.472;2023-07-20T02:20:20;97999.16;;;22.51;91.18
6413;BME280;3239;48.714;9.472;2023-07-20T02:22:46;98005.94;;;22.48;91.10
6413;BME280;3239;48.714;9.472;2023-07-20T02:25:12;97994.56;;;22.44;91.72
6413;BME280;3239;48.714;9.472;2023-07-20T02:27:38;98009.72;;;22.41;91.49
6413;BME280;3239;48.714;9.472;2023-07-20T02:30:05;98009.72;;;22.41;91.88
6413;BME280;3239;48.714;9.472;2023-07-20T02:32:31;98005.22;;;22.36;92.22
6413;BME280;3239;48.714;9.472;2023-07-20T02:34:58;98002.31;;;22.34;92.77
6413;BME280;3239;48.714;9.472;2023-07-20T02:37:24;98003.03;;;22.34;93.36
6413;BME280;3239;48.714;9.472;2023-07-20T02:39:50;98005.59;;;22.30;93.80
6413;BME280;3239;48.714;9.472;2023-07-20T02:42:16;98014.44;;;22.27;94.34
6413;BME280;3239;48.714;9.472;2023-07-20T02:44:42;98009.50;;;22.25;94.30
6413;BME280;3239;48.714;9.472;2023-07-20T02:47:07;98010.69;;;22.22;94.60
6413;BME280;3239;48.714;9.472;2023-07-20T02:49:33;98004.25;;;22.20;94.50
6413;BME280;3239;48.714;9.472;2023-07-20T02:51:59;98017.47;;;22.19;95.07
6413;BME280;3239;48.714;9.472;2023-07-20T02:54:25;98019.44;;;22.17;95.93
6413;BME280;3239;48.714;9.472;2023-07-20T02:56:51;98022.09;;;22.15;95.87
6413;BME280;3239;48.714;9.472;2023-07-20T02:59:16;98021.25;;;22.12;96.00
6413;BME280;3239;48.714;9.472;2023-07-20T03:01:42;98018.22;;;22.08;96.22
6413;BME280;3239;48.714;9.472;2023-07-20T03:04:08;98024.28;;;22.05;97.02
6413;BME280;3239;48.714;9.472;2023-07-20T03:06:37;98022.72;;;22.02;97.56
6413;BME280;3239;48.714;9.472;2023-07-20T03:09:03;98021.13;;;21.99;98.23
6413;BME280;3239;48.714;9.472;2023-07-20T03:11:29;98021.63;;;21.95;100.00
6413;BME280;3239;48.714;9.472;2023-07-20T03:13:55;98020.50;;;21.89;100.00
6413;BME280;3239;48.714;9.472;2023-07-20T03:16:23;98023.78;;;21.85;100.00
6413;BME280;3239;48.714;9.472;2023-07-20T03:18:50;98023.41;;;21.79;100.00
6413;BME280;3239;48.714;9.472;2023-07-20T03:21:16;98015.31;;;21.83;100.00
6413;BME280;3239;48.714;9.472;2023-07-20T03:23:42;98027.78;;;21.82;100.00
6413;BME280;3239;48.714;9.472;2023-07-20T03:26:09;98027.41;;;21.76;100.00
6413;BME280;3239;48.714;9.472;2023-07-20T03:28:38;98028.38;;;21.69;100.00
6413;BME280;3239;48.714;9.472;2023-07-20T03:31:05;98038.16;;;21.59;100.00
6413;BME280;3239;48.714;9.472;2023-07-20T03:33:31;98039.22;;;21.54;100.00
6413;BME280;3239;48.714;9.472;2023-07-20T03:35:58;98040.03;;;21.45;100.00
6413;BME280;3239;48.714;9.472;2023-07-20T03:38:25;98038.81;;;21.36;100.00
6413;BME280;3239;48.714;9.472;2023-07-20T03:40:55;98041.31;;;21.32;100.00
6413;BME280;3239;48.714;9.472;2023-07-20T03:43:22;98041.53;;;21.25;100.00
6413;BME280;3239;48.714;9.472;2023-07-20T03:45:49;98045.53;;;21.22;100.00
6413;BME280;3239;48.714;9.472;2023-07-20T03:48:16;98046.34;;;21.13;100.00
6413;BME280;3239;48.714;9.472;2023-07-20T03:50:48;98053.38;;;21.14;100.00
6413;BME280;3239;48.714;9.472;2023-07-20T03:53:14;98054.56;;;21.11;100.00
6413;BME280;3239;48.714;9.472;2023-07-20T03:55:44;98062.78;;;21.09;100.00
6413;BME280;3239;48.714;9.472;2023-07-20T03:58:11;98052.13;;;21.05;100.00
6413;BME280;3239;48.714;9.472;2023-07-20T04:00:37;98050.41;;;21.00;100.00
6413;BME280;3239;48.714;9.472;2023-07-20T04:03:03;98056.44;;;20.97;100.00
6413;BME280;3239;48.714;9.472;2023-07-20T04:05:29;98059.06;;;20.95;100.00
6413;BME280;3239;48.714;9.472;2023-07-20T04:07:55;98060.41;;;20.94;100.00
6413;BME280;3239;48.714;9.472;2023-07-20T04:10:21;98064.66;;;20.95;100.00
6413;BME280;3239;48.714;9.472;2023-07-20T04:12:46;98054.41;;;20.88;100.00
6413;BME280;3239;48.714;9.472;2023-07-20T04:15:13;98056.34;;;20.85;100.00
6413;BME280;3239;48.714;9.472;2023-07-20T04:17:40;98061.91;;;20.85;100.00
6413;BME280;3239;48.714;9.472;2023-07-20T04:20:09;98066.16;;;20.86;100.00
6413;BME280;3239;48.714;9.472;2023-07-20T04:22:35;98068.06;;;20.84;100.00
6413;BME280;3239;48.714;9.472;2023-07-20T04:25:01;98061.50;;;20.79;100.00
6413;BME280;3239;48.714;9.472;2023-07-20T04:27:26;98064.56;;;20.83;100.00
6413;BME280;3239;48.714;9.472;2023-07-20T04:29:52;98071.47;;;20.82;100.00
6413;BME280;3239;48.714;9.472;2023-07-20T04:32:19;98075.44;;;20.79;100.00
6413;BME280;3239;48.714;9.472;2023-07-20T04:34:45;98076.88;;;20.80;100.00
6413;BME280;3239;48.714;9.472;2023-07-20T04:37:10;98074.09;;;20.80;100.00
6413;BME280;3239;48.714;9.472;2023-07-20T04:39:36;98074.38;;;20.84;100.00
6413;BME280;3239;48.714;9.472;2023-07-20T04:42:02;98072.38;;;20.75;100.00
6413;BME280;3239;48.714;9.472;2023-07-20T04:44:28;98073.13;;;20.76;100.00
6413;BME280;3239;48.714;9.472;2023-07-20T04:46:53;98069.59;;;20.75;100.00
6413;BME280;3239;48.714;9.472;2023-07-20T04:49:19;98067.94;;;20.82;100.00
6413;BME280;3239;48.714;9.472;2023-07-20T04:51:45;98078.03;;;20.87;100.00
6413;BME280;3239;48.714;9.472;2023-07-20T04:54:11;98079.22;;;20.84;100.00
6413;BME280;3239;48.714;9.472;2023-07-20T04:56:37;98076.56;;;20.86;100.00
6413;BME280;3239;48.714;9.472;2023-07-20T04:59:02;98079.63;;;20.90;100.00
6413;BME280;3239;48.714;9.472;2023-07-20T05:01:28;98077.59;;;20.90;100.00
6413;BME280;3239;48.714;9.472;2023-07-20T05:03:54;98080.69;;;20.85;100.00
6413;BME280;3239;48.714;9.472;2023-07-20T05:06:20;98082.19;;;20.76;100.00
6413;BME280;3239;48.714;9.472;2023-07-20T05:08:46;98088.19;;;20.82;100.00
6413;BME280;3239;48.714;9.472;2023-07-20T05:11:12;98089.16;;;20.87;100.00
6413;BME280;3239;48.714;9.472;2023-07-20T05:13:38;98083.59;;;20.87;100.00
6413;BME280;3239;48.714;9.472;2023-07-20T05:16:04;98089.31;;;20.89;100.00
6413;BME280;3239;48.714;9.472;2023-07-20T05:18:30;98075.97;;;20.87;100.00
6413;BME280;3239;48.714;9.472;2023-07-20T05:20:55;98081.13;;;20.91;100.00
6413;BME280;3239;48.714;9.472;2023-07-20T05:23:22;98083.44;;;20.94;100.00
6413;BME280;3239;48.714;9.472;2023-07-20T05:25:57;98079.00;;;21.01;100.00
6413;BME280;3239;48.714;9.472;2023-07-20T05:28:24;98085.81;;;21.09;100.00
6413;BME280;3239;48.714;9.472;2023-07-20T05:30:51;98077.00;;;21.13;100.00
6413;BME280;3239;48.714;9.472;2023-07-20T05:33:19;98080.16;;;21.19;100.00
6413;BME280;3239;48.714;9.472;2023-07-20T05:35:45;98080.56;;;21.25;100.00
6413;BME280;3239;48.714;9.472;2023-07-20T05:38:10;98085.06;;;21.30;100.00
6413;BME280;3239;48.714;9.472;2023-07-20T05:40:41;98082.38;;;21.32;100.00
6413;BME280;3239;48.714;9.472;2023-07-20T05:43:08;98080.34;;;21.32;100.00
6413;BME280;3239;48.714;9.472;2023-07-20T05:45:34;98080.47;;;21.34;100.00
6413;BME280;3239;48.714;9.472;2023-07-20T05:48:00;98085.44;;;21.36;100.00
6413;BME280;3239;48.714;9.472;2023-07-20T05:50:26;98080.72;;;21.38;100.00
6413;BME280;3239;48.714;9.472;2023-07-20T05:52:54;98086.31;;;21.38;100.00
6413;BME280;3239;48.714;9.472;2023-07-20T05:55:21;98081.59;;;21.41;100.00
6413;BME280;3239;48.714;9.472;2023-07-20T05:57:47;98090.94;;;21.45;100.00
6413;BME280;3239;48.714;9.472;2023-07-20T06:00:14;98093.88;;;21.47;100.00
6413;BME280;3239;48.714;9.472;2023-07-20T06:02:40;98092.53;;;21.48;100.00
6413;BME280;3239;48.714;9.472;2023-07-20T06:05:09;98093.66;;;21.55;100.00
6413;BME280;3239;48.714;9.472;2023-07-20T06:07:36;98092.69;;;21.62;100.00
6413;BME280;3239;48.714;9.472;2023-07-20T06:10:02;98090.47;;;21.70;100.00
6413;BME280;3239;48.714;9.472;2023-07-20T06:12:28;98079.78;;;21.78;100.00
6413;BME280;3239;48.714;9.472;2023-07-20T06:14:54;98087.09;;;21.83;100.00
6413;BME280;3239;48.714;9.472;2023-07-20T06:17:20;98086.75;;;21.88;100.00
6413;BME280;3239;48.714;9.472;2023-07-20T06:19:46;98089.75;;;21.92;100.00
6413;BME280;3239;48.714;9.472;2023-07-20T06:22:12;98090.75;;;21.97;100.00
6413;BME280;3239;48.714;9.472;2023-07-20T06:24:37;98093.53;;;21.97;100.00
6413;BME280;3239;48.714;9.472;2023-07-20T06:27:04;98085.78;;;21.95;100.00
6413;BME280;3239;48.714;9.472;2023-07-20T06:29:31;98086.97;;;21.92;100.00
6413;BME280;3239;48.714;9.472;2023-07-20T06:31:57;98090.75;;;21.97;100.00
6413;BME280;3239;48.714;9.472;2023-07-20T06:34:23;98087.38;;;21.98;100.00
6413;BME280;3239;48.714;9.472;2023-07-20T06:36:49;98089.53;;;22.00;100.00
6413;BME280;3239;48.714;9.472;2023-07-20T06:39:14;98087.75;;;22.04;100.00
6413;BME280;3239;48.714;9.472;2023-07-20T06:41:40;98081.06;;;22.09;100.00
6413;BME280;3239;48.714;9.472;2023-07-20T06:44:06;98081.78;;;22.10;100.00
6413;BME280;3239;48.714;9.472;2023-07-20T06:46:33;98083.13;;;22.09;100.00
6413;BME280;3239;48.714;9.472;2023-07-20T06:48:59;98088.38;;;22.14;100.00
6413;BME280;3239;48.714;9.472;2023-07-20T06:51:25;98083.25;;;22.22;100.00
6413;BME280;3239;48.714;9.472;2023-07-20T06:53:52;98083.97;;;22.34;100.00
6413;BME280;3239;48.714;9.472;2023-07-20T06:56:17;98084.84;;;22.37;100.00
6413;BME280;3239;48.714;9.472;2023-07-20T06:58:43;98083.75;;;22.42;100.00
6413;BME280;3239;48.714;9.472;2023-07-20T07:01:09;98084.97;;;22.50;100.00
6413;BME280;3239;48.714;9.472;2023-07-20T07:03:35;98086.19;;;22.59;100.00
6413;BME280;3239;48.714;9.472;2023-07-20T07:06:02;98084.97;;;22.73;100.00
6413;BME280;3239;48.714;9.472;2023-07-20T07:08:28;98079.59;;;22.89;100.00
6413;BME280;3239;48.714;9.472;2023-07-20T07:10:53;98083.09;;;23.01;100.00
6413;BME280;3239;48.714;9.472;2023-07-20T07:13:19;98086.59;;;23.13;100.00
6413;BME280;3239;48.714;9.472;2023-07-20T07:15:45;98083.00;;;23.35;100.00
6413;BME280;3239;48.714;9.472;2023-07-20T07:18:11;98076.03;;;23.48;100.00
6413;BME280;3239;48.714;9.472;2023-07-20T07:20:37;98091.13;;;23.68;100.00
6413;BME280;3239;48.714;9.472;2023-07-20T07:23:03;98080.22;;;23.85;100.00
6413;BME280;3239;48.714;9.472;2023-07-20T07:25:29;98081.81;;;23.88;100.00
6413;BME280;3239;48.714;9.472;2023-07-20T07:27:56;98082.78;;;23.81;100.00
6413;BME280;3239;48.714;9.472;2023-07-20T07:30:22;98073.75;;;23.94;100.00
6413;BME280;3239;48.714;9.472;2023-07-20T07:32:49;98069.63;;;23.84;97.61
6413;BME280;3239;48.714;9.472;2023-07-20T07:35:15;98072.31;;;23.82;96.30
6413;BME280;3239;48.714;9.472;2023-07-20T07:37:41;98063.00;;;24.16;98.07
6413;BME280;3239;48.714;9.472;2023-07-20T07:40:08;98068.53;;;24.41;93.75
6413;BME280;3239;48.714;9.472;2023-07-20T07:42:34;98063.66;;;24.82;85.42
6413;BME280;3239;48.714;9.472;2023-07-20T07:45:00;98062.25;;;25.10;86.64
6413;BME280;3239;48.714;9.472;2023-07-20T07:47:26;98060.50;;;25.74;80.90
6413;BME280;3239;48.714;9.472;2023-07-20T07:49:51;98057.13;;;26.22;72.42
6413;BME280;3239;48.714;9.472;2023-07-20T07:52:17;98055.13;;;26.56;71.34
6413;BME280;3239;48.714;9.472;2023-07-20T07:54:43;98065.34;;;26.80;65.62
6413;BME280;3239;48.714;9.472;2023-07-20T07:57:09;98063.66;;;26.91;63.48
6413;BME280;3239;48.714;9.472;2023-07-20T07:59:34;98051.88;;;27.27;62.52
6413;BME280;3239;48.714;9.472;2023-07-20T08:02:06;98053.03;;;27.75;58.58
6413;BME280;3239;48.714;9.472;2023-07-20T08:04:31;98054.56;;;27.25;61.34
6413;BME280;3239;48.714;9.472;2023-07-20T08:06:58;98051.97;;;26.81;62.05
6413;BME280;3239;48.714;9.472;2023-07-20T08:09:24;98069.50;;;27.12;63.50
6413;BME280;3239;48.714;9.472;2023-07-20T08:11:50;98060.56;;;27.00;60.38
6413;BME280;3239;48.714;9.472;2023-07-20T08:14:16;98057.63;;;27.31;59.40
6413;BME280;3239;48.714;9.472;2023-07-20T08:16:42;98048.72;;;27.54;60.07
6413;BME280;3239;48.714;9.472;2023-07-20T08:19:08;98045.91;;;27.54;57.58
6413;BME280;3239;48.714;9.472;2023-07-20T08:21:34;98045.81;;;27.87;58.14
6413;BME280;3239;48.714;9.472;2023-07-20T08:24:00;98052.09;;;27.86;55.84
6413;BME280;3239;48.714;9.472;2023-07-20T08:26:26;98052.41;;;27.94;53.54
6413;BME280;3239;48.714;9.472;2023-07-20T08:28:51;98049.13;;;27.82;56.32
6413;BME280;3239;48.714;9.472;2023-07-20T08:31:17;98050.19;;;28.10;55.48
6413;BME280;3239;48.714;9.472;2023-07-20T08:33:43;98048.84;;;27.93;54.52
6413;BME280;3239;48.714;9.472;2023-07-20T08:36:09;98043.16;;;27.56;56.48
6413;BME280;3239;48.714;9.472;2023-07-20T08:38:35;98048.66;;;28.07;57.24
6413;BME280;3239;48.714;9.472;2023-07-20T08:41:00;98043.28;;;28.71;49.99
6413;BME280;3239;48.714;9.472;2023-07-20T08:43:28;98039.50;;;28.84;48.00
6413;BME280;3239;48.714;9.472;2023-07-20T08:45:57;98037.56;;;29.10;47.93
6413;BME280;3239;48.714;9.472;2023-07-20T08:48:24;98027.41;;;29.01;47.53
6413;BME280;3239;48.714;9.472;2023-07-20T08:50:53;98035.22;;;29.46;44.81
6413;BME280;3239;48.714;9.472;2023-07-20T08:53:20;98027.16;;;29.15;45.73
6413;BME280;3239;48.714;9.472;2023-07-20T08:55:50;98030.75;;;29.60;43.42
6413;BME280;3239;48.714;9.472;2023-07-20T08:58:17;98031.13;;;29.72;43.11
6413;BME280;3239;48.714;9.472;2023-07-20T09:00:43;98044.25;;;29.42;44.87
6413;BME280;3239;48.714;9.472;2023-07-20T09:03:10;98029.69;;;29.71;42.91
6413;BME280;3239;48.714;9.472;2023-07-20T09:05:36;98027.22;;;29.83;42.65
6413;BME280;3239;48.714;9.472;2023-07-20T09:08:02;98022.13;;;30.01;42.55
6413;BME280;3239;48.714;9.472;2023-07-20T09:10:29;98022.13;;;30.25;41.90
6413;BME280;3239;48.714;9.472;2023-07-20T09:12:55;98017.66;;;30.18;39.91
6413;BME280;3239;48.714;9.472;2023-07-20T09:15:22;98012.91;;;30.01;41.13
6413;BME280;3239;48.714;9.472;2023-07-20T09:17:50;98017.31;;;29.82;42.01
6413;BME280;3239;48.714;9.472;2023-07-20T09:20:17;98016.22;;;30.17;42.04
6413;BME280;3239;48.714;9.472;2023-07-20T09:22:44;98011.97;;;29.69;40.10
6413;BME280;3239;48.714;9.472;2023-07-20T09:25:15;98019.41;;;29.82;41.11
6413;BME280;3239;48.714;9.472;2023-07-20T09:27:44;98013.81;;;30.07;40.95
6413;BME280;3239;48.714;9.472;2023-07-20T09:30:11;98019.41;;;30.05;41.00
6413;BME280;3239;48.714;9.472;2023-07-20T09:32:46;98010.59;;;28.84;41.65
6413;BME280;3239;48.714;9.472;2023-07-20T09:35:18;98010.03;;;28.68;43.75
6413;BME280;3239;48.714;9.472;2023-07-20T09:38:00;98003.06;;;28.71;43.61
6413;BME280;3239;48.714;9.472;2023-07-20T09:40:27;98017.25;;;28.34;44.21
6413;BME280;3239;48.714;9.472;2023-07-20T09:42:54;98009.75;;;28.60;45.84
6413;BME280;3239;48.714;9.472;2023-07-20T09:45:41;98005.53;;;30.13;41.69
6413;BME280;3239;48.714;9.472;2023-07-20T09:48:09;98010.19;;;30.79;41.24
6413;BME280;3239;48.714;9.472;2023-07-20T09:50:48;98007.69;;;31.78;38.08
6413;BME280;3239;48.714;9.472;2023-07-20T09:53:15;98006.13;;;32.40;35.50
6413;BME280;3239;48.714;9.472;2023-07-20T09:55:44;97995.81;;;32.56;36.00
6413;BME280;3239;48.714;9.472;2023-07-20T09:58:10;98004.47;;;31.05;36.49
6413;BME280;3239;48.714;9.472;2023-07-20T10:00:38;97992.50;;;30.53;37.48
6413;BME280;3239;48.714;9.472;2023-07-20T10:03:05;97987.22;;;30.65;37.25
6413;BME280;3239;48.714;9.472;2023-07-20T10:05:37;97996.84;;;31.70;34.67
6413;BME280;3239;48.714;9.472;2023-07-20T10:08:04;97989.53;;;31.59;34.85
6413;BME280;3239;48.714;9.472;2023-07-20T10:10:33;97987.19;;;32.15;33.84
6413;BME280;3239;48.714;9.472;2023-07-20T10:13:01;97989.31;;;32.50;32.89
6413;BME280;3239;48.714;9.472;2023-07-20T10:15:42;97984.00;;;32.70;34.25
6413;BME280;3239;48.714;9.472;2023-07-20T10:20:57;97978.25;;;33.98;32.13
6413;BME280;3239;48.714;9.472;2023-07-20T10:23:25;97975.34;;;33.45;31.78
6413;BME280;3239;48.714;9.472;2023-07-20T10:25:52;97974.06;;;33.08;32.35
6413;BME280;3239;48.714;9.472;2023-07-20T10:28:18;97977.41;;;32.97;32.65
6413;BME280;3239;48.714;9.472;2023-07-20T10:30:46;97982.00;;;33.16;32.63
6413;BME280;3239;48.714;9.472;2023-07-20T10:33:12;97974.13;;;33.12;32.58
6413;BME280;3239;48.714;9.472;2023-07-20T10:35:52;97959.59;;;32.53;32.61
6413;BME280;3239;48.714;9.472;2023-07-20T10:38:18;97957.69;;;32.65;32.95
6413;BME280;3239;48.714;9.472;2023-07-20T10:40:54;97955.16;;;32.44;33.97
6413;BME280;3239;48.714;9.472;2023-07-20T10:43:20;97960.50;;;31.29;34.18
6413;BME280;3239;48.714;9.472;2023-07-20T10:45:52;97954.44;;;30.84;34.72
6413;BME280;3239;48.714;9.472;2023-07-20T10:48:22;97950.75;;;30.52;35.88
6413;BME280;3239;48.714;9.472;2023-07-20T10:51:19;97956.22;;;30.18;36.49
6413;BME280;3239;48.714;9.472;2023-07-20T10:53:45;97954.84;;;30.19;36.74
6413;BME280;3239;48.714;9.472;2023-07-20T10:56:19;97952.25;;;30.04;37.79
6413;BME280;3239;48.714;9.472;2023-07-20T10:58:46;97947.03;;;29.47;38.60
6413;BME280;3239;48.714;9.472;2023-07-20T11:01:17;97936.22;;;29.16;38.88
6413;BME280;3239;48.714;9.472;2023-07-20T11:03:48;97946.31;;;29.02;38.44
6413;BME280;3239;48.714;9.472;2023-07-20T11:09:14;97938.22;;;28.71;40.19
6413;BME280;3239;48.714;9.472;2023-07-20T11:11:48;97937.66;;;28.74;38.71
6413;BME280;3239;48.714;9.472;2023-07-20T11:14:26;97938.03;;;28.86;38.01
6413;BME280;3239;48.714;9.472;2023-07-20T11:16:53;97941.38;;;28.81;39.52
6413;BME280;3239;48.714;9.472;2023-07-20T11:19:26;97932.41;;;28.86;37.27
6413;BME280;3239;48.714;9.472;2023-07-20T11:21:57;97925.78;;;28.78;36.76
6413;BME280;3239;48.714;9.472;2023-07-20T11:24:24;97924.44;;;28.81;37.19
6413;BME280;3239;48.714;9.472;2023-07-20T11:26:54;97928.50;;;28.76;38.74
6413;BME280;3239;48.714;9.472;2023-07-20T11:29:22;97937.19;;;28.82;39.52
6413;BME280;3239;48.714;9.472;2023-07-20T11:31:49;97937.25;;;28.84;39.69
6413;BME280;3239;48.714;9.472;2023-07-20T11:34:20;97935.88;;;28.85;39.54
6413;BME280;3239;48.714;9.472;2023-07-20T11:36:51;97939.28;;;28.81;39.55
6413;BME280;3239;48.714;9.472;2023-07-20T11:39:19;97930.69;;;28.77;39.77
6413;BME280;3239;48.714;9.472;2023-07-20T11:41:49;97925.38;;;28.87;40.32
6413;BME280;3239;48.714;9.472;2023-07-20T11:44:27;97925.19;;;28.81;39.52
6413;BME280;3239;48.714;9.472;2023-07-20T11:47:09;97917.91;;;28.74;39.65
6413;BME280;3239;48.714;9.472;2023-07-20T11:49:43;97908.94;;;28.58;39.45
6413;BME280;3239;48.714;9.472;2023-07-20T11:52:15;97910.72;;;28.50;40.44
6413;BME280;3239;48.714;9.472;2023-07-20T11:54:43;97910.22;;;28.55;40.37
6413;BME280;3239;48.714;9.472;2023-07-20T11:57:22;97901.50;;;28.47;38.29
6413;BME280;3239;48.714;9.472;2023-07-20T11:59:58;97902.03;;;28.42;39.03
6413;BME280;3239;48.714;9.472;2023-07-20T12:02:27;97911.31;;;28.46;39.75
6413;BME280;3239;48.714;9.472;2023-07-20T12:04:57;97913.50;;;28.48;39.49
6413;BME280;3239;48.714;9.472;2023-07-20T12:07:27;97903.47;;;28.64;37.83
6413;BME280;3239;48.714;9.472;2023-07-20T12:10:11;97896.78;;;28.54;37.55
6413;BME280;3239;48.714;9.472;2023-07-20T12:12:42;97892.56;;;28.55;37.58
6413;BME280;3239;48.714;9.472;2023-07-20T12:15:24;97906.69;;;28.55;38.20
6413;BME280;3239;48.714;9.472;2023-07-20T12:17:57;97893.63;;;28.44;39.74
6413;BME280;3239;48.714;9.472;2023-07-20T12:20:34;97892.13;;;28.41;38.37
6413;BME280;3239;48.714;9.472;2023-07-20T12:23:12;97889.13;;;28.37;37.62
6413;BME280;3239;48.714;9.472;2023-07-20T12:25:43;97895.22;;;28.29;37.72
6413;BME280;3239;48.714;9.472;2023-07-20T12:28:11;97888.75;;;28.25;37.48
6413;BME280;3239;48.714;9.472;2023-07-20T12:30:43;97888.00;;;28.24;38.43
6413;BME280;3239;48.714;9.472;2023-07-20T12:33:10;97885.34;;;28.28;38.46
6413;BME280;3239;48.714;9.472;2023-07-20T12:35:37;97877.31;;;28.40;38.72
6413;BME280;3239;48.714;9.472;2023-07-20T12:38:03;97866.75;;;28.41;36.60
6413;BME280;3239;48.714;9.472;2023-07-20T12:40:29;97868.78;;;28.38;36.25
6413;BME280;3239;48.714;9.472;2023-07-20T12:42:57;97870.59;;;28.30;36.40
6413;BME280;3239;48.714;9.472;2023-07-20T12:45:23;97868.28;;;28.24;37.00
6413;BME280;3239;48.714;9.472;2023-07-20T12:47:48;97874.72;;;28.27;38.51
6413;BME280;3239;48.714;9.472;2023-07-20T12:50:14;97877.06;;;28.34;37.24
6413;BME280;3239;48.714;9.472;2023-07-20T12:52:40;97863.50;;;28.29;37.09
6413;BME280;3239;48.714;9.472;2023-07-20T12:55:08;97874.13;;;28.30;37.70
6413;BME280;3239;48.714;9.472;2023-07-20T12:57:36;97864.03;;;28.23;35.97
6413;BME280;3239;48.714;9.472;2023-07-20T13:00:09;97867.25;;;27.94;36.30
6413;BME280;3239;48.714;9.472;2023-07-20T13:02:35;97862.78;;;27.87;36.94
6413;BME280;3239;48.714;9.472;2023-07-20T13:05:02;97855.06;;;27.88;37.21
6413;BME280;3239;48.714;9.472;2023-07-20T13:07:36;97842.13;;;27.81;36.61
6413;BME280;3239;48.714;9.472;2023-07-20T13:10:04;97845.03;;;27.83;36.78
6413;BME280;3239;48.714;9.472;2023-07-20T13:12:32;97843.59;;;27.82;38.23
6413;BME280;3239;48.714;9.472;2023-07-20T13:14:59;97831.84;;;27.89;36.69
6413;BME280;3239;48.714;9.472;2023-07-20T13:17:27;97829.97;;;27.96;36.76
6413;BME280;3239;48.714;9.472;2023-07-20T13:19:54;97827.81;;;27.94;37.13
6413;BME280;3239;48.714;9.472;2023-07-20T13:22:20;97831.41;;;27.97;36.29
6413;BME280;3239;48.714;9.472;2023-07-20T13:24:46;97832.16;;;27.97;36.92
6413;BME280;3239;48.714;9.472;2023-07-20T13:27:15;97841.88;;;28.14;35.42
6413;BME280;3239;48.714;9.472;2023-07-20T13:29:41;97841.38;;;28.00;35.27
6413;BME280;3239;48.714;9.472;2023-07-20T13:32:08;97833.69;;;27.81;35.88